Time;durP1;ratioP1;P1;durP2;ratioP2;P2;SDS_P1;SDS_P2;PMS_P1;PMS_P2;Temp;Humidity;BMP_temperature;BMP_pressure;BME280_temperature;BME280_humidity;BME280_pressure;Samples;Min_cycle;Max_cycle;Signal;HPM_P1;HPM_P2
2022/12/15 00:38:41;;;;;;;22.75;11.35;;;;;;;-6.60;100.00;100541.56;4992185;28;20413;-51
2022/12/15 00:41:10;;;;;;;22.17;11.02;;;;;;;-6.67;100.00;100533.03;4991225;28;20481;-54
2022/12/15 00:43:40;;;;;;;23.27;11.85;;;;;;;-6.60;100.00;100545.84;4991614;28;20053;-53
2022/12/15 00:48:53;;;;;;;23.45;12.15;;;;;;;-6.65;100.00;100538.19;4990998;28;20106;-53
2022/12/15 00:51:21;;;;;;;22.20;11.90;;;;;;;-6.65;100.00;100533.91;4991378;28;20050;-50
2022/12/15 01:21:53;;;;;;;22.48;12.32;;;;;;;-6.70;100.00;100565.44;4990024;28;20100;-47
2022/12/15 01:24:21;;;;;;;20.10;12.25;;;;;;;-6.68;100.00;100563.72;4989010;28;20085;-46
2022/12/15 01:26:50;;;;;;;21.63;10.45;;;;;;;-6.70;100.00;100561.19;4989312;28;20050;-47
2022/12/15 01:29:18;;;;;;;19.60;11.23;;;;;;;-6.69;100.00;100562.88;5004255;28;20141;-47
2022/12/15 01:31:50;;;;;;;21.92;11.27;;;;;;;-6.68;100.00;100563.72;4987733;28;20054;-47
2022/12/15 01:34:21;;;;;;;21.33;10.80;;;;;;;-6.73;100.00;100565.47;4988292;28;20055;-45
2022/12/15 01:36:49;;;;;;;24.67;12.23;;;;;;;-6.71;100.00;100569.69;4991027;28;20053;-46
2022/12/15 01:39:17;;;;;;;22.15;11.57;;;;;;;-6.71;100.00;100561.19;4990236;28;20046;-46
2022/12/15 01:41:45;;;;;;;21.40;11.57;;;;;;;-6.74;100.00;100567.13;5002323;28;20453;-47
2022/12/15 01:44:19;;;;;;;25.30;11.85;;;;;;;-6.73;100.00;100573.97;4989590;28;20054;-48
2022/12/15 01:46:53;;;;;;;24.90;12.88;;;;;;;-6.78;100.00;100570.53;4987336;28;20108;-48
2022/12/15 01:49:26;;;;;;;21.45;11.07;;;;;;;-6.78;100.00;100575.66;4989243;28;20513;-48
2022/12/15 01:51:58;;;;;;;19.40;11.05;;;;;;;-6.81;100.00;100579.06;4990347;28;20517;-52
2022/12/15 01:54:31;;;;;;;23.75;12.40;;;;;;;-6.83;100.00;100579.91;4990830;28;20051;-51
2022/12/15 01:57:03;;;;;;;20.10;10.75;;;;;;;-6.83;100.00;100585.91;4989680;28;20053;-47
2022/12/15 01:59:35;;;;;;;21.42;11.18;;;;;;;-6.80;100.00;100585.06;4988604;28;20537;-47
2022/12/15 02:02:05;;;;;;;22.83;12.15;;;;;;;-6.75;100.00;100585.88;4989743;28;20057;-51
2022/12/15 02:04:34;;;;;;;24.73;11.90;;;;;;;-6.74;100.00;100587.59;4990893;28;20050;-51
2022/12/15 02:07:02;;;;;;;21.52;11.65;;;;;;;-6.81;100.00;100598.69;4990437;28;20203;-50
2022/12/15 02:09:31;;;;;;;22.52;11.30;;;;;;;-6.89;100.00;100590.13;4990339;28;20061;-51
2022/12/15 02:12:10;;;;;;;21.52;10.95;;;;;;;-6.93;100.00;100598.66;4990462;28;20490;-51
2022/12/15 02:15:06;;;;;;;21.33;10.82;;;;;;;-6.98;100.00;100596.94;4990697;28;20051;-51
2022/12/15 02:17:52;;;;;;;22.15;11.80;;;;;;;-6.98;100.00;100596.94;4989625;28;20544;-50
2022/12/15 02:20:41;;;;;;;22.35;11.60;;;;;;;-6.89;100.00;100595.25;4990323;28;20054;-51
2022/12/15 02:23:46;;;;;;;25.08;11.27;;;;;;;-6.96;100.00;100587.53;4990034;28;20568;-50
2022/12/15 02:26:55;;;;;;;20.60;10.82;;;;;;;-6.96;100.00;100585.00;4990101;28;20502;-52
2022/12/15 02:29:56;;;;;;;19.92;10.52;;;;;;;-6.94;100.00;100586.72;4963404;28;20058;-50
2022/12/15 02:32:30;;;;;;;21.58;11.50;;;;;;;-6.93;100.00;100601.22;4991420;28;20494;-51
2022/12/15 02:35:03;;;;;;;17.40;10.50;;;;;;;-6.98;100.00;100601.19;4993513;28;20058;-52
2022/12/15 02:37:33;;;;;;;21.98;11.32;;;;;;;-6.99;100.00;100599.50;4994241;28;20489;-52
2022/12/15 02:40:01;;;;;;;18.33;10.38;;;;;;;-6.98;100.00;100606.28;4994015;28;20047;-50
2022/12/15 02:42:32;;;;;;;21.23;11.68;;;;;;;-6.97;100.00;100601.22;4993574;28;20051;-53
2022/12/15 02:45:06;;;;;;;24.17;11.00;;;;;;;-6.97;100.00;100593.53;4993759;28;20062;-51
2022/12/15 02:47:44;;;;;;;23.35;11.00;;;;;;;-6.94;100.00;100586.72;4992829;28;20559;-52
2022/12/15 02:50:32;;;;;;;24.17;11.52;;;;;;;-6.92;100.00;100585.03;4992675;28;20054;-50
2022/12/15 02:53:11;;;;;;;19.85;11.25;;;;;;;-6.92;100.00;100590.97;4992979;28;20053;-50
2022/12/15 02:55:49;;;;;;;20.67;10.15;;;;;;;-6.94;100.00;100592.66;4991510;28;20517;-47
2022/12/15 02:58:30;;;;;;;20.73;11.60;;;;;;;-6.93;100.00;100591.81;4992163;28;20046;-47
2022/12/15 03:01:02;;;;;;;24.20;12.15;;;;;;;-6.93;100.00;100596.94;4990606;28;20043;-47
2022/12/15 03:03:35;;;;;;;19.08;10.00;;;;;;;-6.93;100.00;100589.25;4991497;28;20046;-47
2022/12/15 03:06:04;;;;;;;22.23;10.55;;;;;;;-6.94;100.00;100587.53;4992067;28;20074;-49
2022/12/15 03:08:32;;;;;;;21.05;11.18;;;;;;;-6.94;100.00;100594.38;4992065;28;20153;-46
2022/12/15 03:11:02;;;;;;;21.02;9.85;;;;;;;-6.95;100.00;100598.66;4991150;28;20085;-45
2022/12/15 03:13:30;;;;;;;21.75;10.52;;;;;;;-6.94;100.00;100599.50;4991556;28;20749;-46
2022/12/15 03:16:00;;;;;;;20.45;10.82;;;;;;;-6.89;100.00;100613.16;4991137;28;20569;-47
2022/12/15 03:18:28;;;;;;;19.50;10.23;;;;;;;-6.91;100.00;100608.03;4991415;28;20050;-50
2022/12/15 03:20:57;;;;;;;19.20;10.52;;;;;;;-6.90;100.00;100611.44;4990578;28;20543;-46
2022/12/15 03:23:26;;;;;;;19.77;10.77;;;;;;;-6.87;100.00;100617.44;4991429;28;20058;-47
2022/12/15 03:25:54;;;;;;;20.88;10.45;;;;;;;-6.89;100.00;100620.81;4990431;28;20066;-49
2022/12/15 03:28:23;;;;;;;18.67;11.00;;;;;;;-6.91;100.00;100617.41;4991435;28;20112;-46
2022/12/15 03:30:51;;;;;;;19.05;11.15;;;;;;;-6.89;100.00;100613.16;4990182;28;20046;-48
2022/12/15 03:33:20;;;;;;;23.08;10.80;;;;;;;-6.91;100.00;100608.03;4990283;28;20445;-46
2022/12/15 03:35:48;;;;;;;23.52;10.32;;;;;;;-6.90;100.00;100614.84;4990826;28;20046;-47
2022/12/15 03:38:18;;;;;;;20.25;10.45;;;;;;;-6.93;100.00;100614.84;4991409;28;20076;-47
2022/12/15 03:40:46;;;;;;;22.98;11.38;;;;;;;-6.94;100.00;100617.41;4989219;28;20058;-48
2022/12/15 03:43:14;;;;;;;21.08;10.25;;;;;;;-6.96;100.00;100625.91;4990988;28;20097;-46
2022/12/15 03:45:43;;;;;;;19.70;10.45;;;;;;;-6.98;100.00;100621.63;4990828;28;20506;-46
2022/12/15 03:48:11;;;;;;;17.25;10.13;;;;;;;-6.98;100.00;100619.94;4989628;28;20050;-50
2022/12/15 03:50:39;;;;;;;22.63;9.85;;;;;;;-6.97;100.00;100618.25;4990960;28;20054;-47
2022/12/15 03:53:08;;;;;;;19.33;10.75;;;;;;;-6.89;100.00;100621.66;4991070;28;20097;-52
2022/12/15 03:55:37;;;;;;;22.20;11.38;;;;;;;-6.91;100.00;100632.75;4990730;28;20058;-47
2022/12/15 03:58:09;;;;;;;20.67;11.10;;;;;;;-6.94;100.00;100632.75;4990503;28;20082;-47
2022/12/15 04:00:38;;;;;;;20.15;11.43;;;;;;;-6.93;100.00;100639.56;4990423;28;20050;-50
2022/12/15 04:03:06;;;;;;;22.70;10.75;;;;;;;-6.94;100.00;100637.84;4988572;28;20501;-46
2022/12/15 04:05:35;;;;;;;21.38;10.02;;;;;;;-6.91;100.00;100636.16;4989426;28;20053;-48
2022/12/15 04:08:04;;;;;;;17.35;10.23;;;;;;;-6.94;100.00;100637.84;4990608;28;20567;-48
2022/12/15 04:10:35;;;;;;;19.52;10.63;;;;;;;-6.96;100.00;100637.84;4990656;28;20046;-48
2022/12/15 04:13:06;;;;;;;21.38;10.60;;;;;;;-6.97;100.00;100636.13;4990213;28;20375;-46
2022/12/15 04:15:36;;;;;;;20.13;10.60;;;;;;;-6.99;100.00;100635.28;4990582;28;20050;-47
2022/12/15 04:18:06;;;;;;;20.38;9.82;;;;;;;-6.96;100.00;100638.69;4988822;28;20100;-49
2022/12/15 04:20:34;;;;;;;20.10;9.98;;;;;;;-6.94;100.00;100640.41;4990208;28;20046;-45
2022/12/15 04:23:02;;;;;;;21.13;10.80;;;;;;;-6.97;100.00;100636.13;4990605;28;20047;-46
2022/12/15 05:33:27;;;;;;;20.67;11.38;;;;;;;-7.31;100.00;100667.53;5030167;28;20049;-50
2022/12/15 05:35:57;;;;;;;23.13;10.77;;;;;;;-7.30;100.00;100664.09;5030418;28;20562;-52
2022/12/15 05:38:25;;;;;;;21.70;11.27;;;;;;;-7.30;100.00;100666.66;5030743;28;20103;-51
2022/12/15 05:40:53;;;;;;;19.45;10.90;;;;;;;-7.26;100.00;100666.69;5030364;28;20115;-45
2022/12/15 05:43:21;;;;;;;21.90;11.25;;;;;;;-7.34;100.00;100664.94;5028961;28;20049;-45
2022/12/15 05:45:53;;;;;;;23.05;11.45;;;;;;;-7.36;100.00;100666.66;5027188;28;20053;-45
2022/12/15 05:48:21;;;;;;;22.88;11.18;;;;;;;-7.36;100.00;100668.31;5028395;28;20124;-46
2022/12/15 05:50:51;;;;;;;20.80;11.27;;;;;;;-7.36;100.00;100676.88;5028295;28;20514;-45
2022/12/15 05:53:19;;;;;;;23.63;11.43;;;;;;;-7.38;100.00;100668.31;5028714;28;20111;-47
2022/12/15 05:55:47;;;;;;;20.45;11.27;;;;;;;-7.33;100.00;100671.75;5026881;28;20049;-46
2022/12/15 05:58:15;;;;;;;22.80;12.10;;;;;;;-7.34;100.00;100679.44;5028863;28;20477;-47
2022/12/15 06:00:43;;;;;;;22.13;12.00;;;;;;;-7.37;100.00;100687.09;5028330;28;20065;-47
2022/12/15 06:03:11;;;;;;;23.10;11.95;;;;;;;-7.38;100.00;100688.78;5026807;28;20469;-46
2022/12/15 06:05:41;;;;;;;21.98;12.40;;;;;;;-7.36;100.00;100693.88;5027565;28;20496;-48
2022/12/15 06:08:11;;;;;;;23.25;12.45;;;;;;;-7.41;100.00;100698.97;5015684;28;20408;-46
2022/12/15 06:10:39;;;;;;;22.38;11.50;;;;;;;-7.43;100.00;100690.47;5032425;28;20049;-47
2022/12/15 06:13:08;;;;;;;24.80;12.05;;;;;;;-7.44;100.00;100690.44;5031636;28;20042;-47
2022/12/15 06:15:36;;;;;;;21.67;11.23;;;;;;;-7.39;100.00;100694.75;5031491;28;20045;-50
2022/12/15 06:18:04;;;;;;;23.15;12.50;;;;;;;-7.42;100.00;100693.88;5028836;28;20060;-47
2022/12/15 06:20:32;;;;;;;24.63;12.10;;;;;;;-7.47;100.00;100704.06;5031393;28;20107;-45
2022/12/15 06:23:00;;;;;;;24.63;12.60;;;;;;;-7.44;100.00;100705.75;5031476;28;20041;-44
2022/12/15 06:25:30;;;;;;;27.90;13.98;;;;;;;-7.44;100.00;100710.88;5032172;28;20053;-47
2022/12/15 06:27:58;;;;;;;24.83;13.02;;;;;;;-7.47;100.00;100720.25;5010886;28;20112;-48
2022/12/15 06:30:29;;;;;;;28.38;13.32;;;;;;;-7.49;100.00;100718.50;5024648;28;20060;-45
2022/12/15 06:32:57;;;;;;;26.83;13.13;;;;;;;-7.44;100.00;100708.31;5030200;28;20073;-47
2022/12/15 06:35:25;;;;;;;29.75;14.38;;;;;;;-7.45;100.00;100706.63;5032408;28;20053;-48
2022/12/15 06:37:53;;;;;;;27.13;13.68;;;;;;;-7.41;100.00;100704.09;5032108;28;20049;-46
2022/12/15 06:40:22;;;;;;;31.05;13.90;;;;;;;-7.42;100.00;100712.59;5032696;28;20073;-44
2022/12/15 06:42:51;;;;;;;29.02;14.07;;;;;;;-7.35;100.00;100709.25;5031531;28;20048;-47
2022/12/15 06:45:19;;;;;;;26.80;13.50;;;;;;;-7.41;100.00;100713.47;5044439;28;20049;-47
2022/12/15 06:47:50;;;;;;;29.27;14.65;;;;;;;-7.41;100.00;100711.75;5045388;28;20056;-47
2022/12/15 06:50:25;;;;;;;29.88;14.10;;;;;;;-7.38;100.00;100719.44;5031537;28;20065;-50
2022/12/15 06:52:53;;;;;;;29.77;14.30;;;;;;;-7.39;100.00;100725.41;5032926;28;20056;-52
2022/12/15 06:55:21;;;;;;;28.90;14.75;;;;;;;-7.37;100.00;100728.81;5033196;28;20065;-50
2022/12/15 06:57:51;;;;;;;30.27;14.15;;;;;;;-7.40;100.00;100736.47;5032415;28;20500;-53
2022/12/15 07:00:19;;;;;;;34.38;14.38;;;;;;;-7.41;100.00;100729.66;5032808;28;20084;-49
2022/12/15 07:02:48;;;;;;;37.10;14.60;;;;;;;-7.37;100.00;100727.97;5030143;28;20060;-50
2022/12/15 07:05:17;;;;;;;25.50;13.73;;;;;;;-7.41;100.00;100727.09;5032807;28;20065;-49
2022/12/15 07:07:45;;;;;;;33.90;15.65;;;;;;;-7.46;100.00;100728.75;5032748;28;20124;-52
2022/12/15 07:10:13;;;;;;;32.58;16.52;;;;;;;-7.47;100.00;100735.56;5032869;28;20128;-49
2022/12/15 07:12:41;;;;;;;37.35;16.77;;;;;;;-7.52;100.00;100731.28;5032177;28;20053;-50
2022/12/15 07:15:11;;;;;;;29.92;15.18;;;;;;;-7.52;100.00;100738.94;5024740;28;20045;-49
2022/12/15 07:17:40;;;;;;;32.78;15.30;;;;;;;-7.49;100.00;100731.28;5031066;28;20057;-49
2022/12/15 07:20:11;;;;;;;31.25;14.90;;;;;;;-7.48;100.00;100733.00;5031811;28;20047;-49
2022/12/15 07:22:39;;;;;;;31.13;15.80;;;;;;;-7.47;100.00;100737.28;5032161;28;20107;-49
2022/12/15 07:25:09;;;;;;;30.95;16.70;;;;;;;-7.51;100.00;100740.63;5032224;28;20133;-50
2022/12/15 07:27:37;;;;;;;32.60;15.35;;;;;;;-7.52;100.00;100736.38;5032055;28;20057;-49
2022/12/15 07:30:06;;;;;;;31.80;14.98;;;;;;;-7.54;100.00;100738.06;5032078;28;20049;-52
2022/12/15 07:32:36;;;;;;;31.95;15.32;;;;;;;-7.54;100.00;100743.16;5031062;28;20408;-45
2022/12/15 07:35:04;;;;;;;30.27;14.77;;;;;;;-7.57;100.00;100741.44;5030423;28;20504;-48
2022/12/15 07:37:32;;;;;;;26.63;14.32;;;;;;;-7.59;100.00;100744.81;5030726;28;20053;-46
2022/12/15 07:40:01;;;;;;;29.25;15.57;;;;;;;-7.52;100.00;100757.66;5030870;28;20095;-48
2022/12/15 07:42:29;;;;;;;30.15;15.38;;;;;;;-7.58;100.00;100757.63;5030427;28;20737;-45
2022/12/15 07:44:57;;;;;;;31.63;15.07;;;;;;;-7.59;100.00;100757.59;5030513;28;20104;-45
2022/12/15 07:47:26;;;;;;;29.70;15.25;;;;;;;-7.60;100.00;100753.34;5029289;28;20044;-46
2022/12/15 07:49:56;;;;;;;27.92;15.02;;;;;;;-7.61;100.00;100760.16;5030542;28;20515;-49
2022/12/15 07:52:25;;;;;;;30.27;15.10;;;;;;;-7.59;100.00;100766.13;5031859;28;20045;-45
2022/12/15 07:54:53;;;;;;;31.73;14.40;;;;;;;-7.56;100.00;100765.31;5011393;28;20042;-45
2022/12/15 07:57:22;;;;;;;31.70;15.38;;;;;;;-7.56;100.00;100770.41;5010641;28;20046;-48
2022/12/15 07:59:50;;;;;;;27.00;14.18;;;;;;;-7.53;100.00;100765.31;5010400;28;20062;-47
2022/12/15 08:02:19;;;;;;;33.13;14.88;;;;;;;-7.48;100.00;100767.06;5022476;28;20553;-50
2022/12/15 08:04:47;;;;;;;29.55;15.75;;;;;;;-7.45;100.00;100775.63;5029703;28;20045;-50
2022/12/15 08:07:17;;;;;;;30.13;15.77;;;;;;;-7.49;100.00;100773.00;5030479;28;20045;-45
2022/12/15 08:09:48;;;;;;;30.80;15.93;;;;;;;-7.40;100.00;100781.59;5029720;28;20129;-47
2022/12/15 08:12:16;;;;;;;26.70;15.70;;;;;;;-7.44;100.00;100783.28;5029686;28;20053;-46
2022/12/15 08:14:45;;;;;;;28.73;16.00;;;;;;;-7.39;100.00;100781.63;5029710;28;20050;-46
2022/12/15 08:17:17;;;;;;;30.80;16.73;;;;;;;-7.37;100.00;100785.03;5027538;28;20053;-48
2022/12/15 08:19:45;;;;;;;33.10;15.82;;;;;;;-7.36;100.00;100794.44;5029410;28;20133;-46
2022/12/15 08:22:14;;;;;;;28.98;16.00;;;;;;;-7.25;100.00;100786.84;5029791;28;20045;-48
2022/12/15 08:24:43;;;;;;;35.28;16.25;;;;;;;-7.12;100.00;100790.31;5029539;28;20084;-49
2022/12/15 08:27:12;;;;;;;30.30;16.23;;;;;;;-7.12;100.00;100790.31;5029730;28;20060;-47
2022/12/15 08:29:40;;;;;;;24.20;14.65;;;;;;;-6.96;100.00;100792.13;5029419;28;20069;-47
2022/12/15 08:32:18;;;;;;;27.83;15.80;;;;;;;-6.82;100.00;100796.47;5028506;28;20148;-50
2022/12/15 08:34:48;;;;;;;26.30;15.57;;;;;;;-6.82;100.00;100792.22;5027568;28;20062;-47
2022/12/15 08:37:16;;;;;;;30.08;15.00;;;;;;;-6.70;100.00;100790.59;5030014;28;20564;-47
2022/12/15 08:39:46;;;;;;;31.33;16.80;;;;;;;-6.61;100.00;100805.97;5028690;28;20045;-47
2022/12/15 08:42:15;;;;;;;31.17;15.73;;;;;;;-6.59;100.00;100799.16;5029701;28;20064;-46
2022/12/15 08:44:43;;;;;;;29.70;15.38;;;;;;;-6.56;100.00;100795.75;5028726;28;20100;-46
2022/12/15 08:47:11;;;;;;;29.10;17.73;;;;;;;-6.54;100.00;100792.34;5028434;28;20045;-50
2022/12/15 08:49:39;;;;;;;30.35;16.75;;;;;;;-6.46;100.00;100800.91;5029206;28;20056;-49
2022/12/15 08:52:07;;;;;;;32.22;16.80;;;;;;;-6.46;100.00;100803.47;5029693;28;20057;-47
2022/12/15 08:54:35;;;;;;;30.75;17.48;;;;;;;-6.39;100.00;100806.06;5029006;28;20041;-50
2022/12/15 08:57:05;;;;;;;33.70;17.40;;;;;;;-6.31;100.00;100795.00;5029133;28;20053;-52
2022/12/15 08:59:33;;;;;;;32.35;17.75;;;;;;;-6.24;100.00;100795.00;5030016;28;20428;-50
2022/12/15 09:02:02;;;;;;;29.15;17.08;;;;;;;-6.21;100.00;100800.16;5027085;28;20468;-47
2022/12/15 09:04:30;;;;;;;30.67;17.15;;;;;;;-6.20;100.00;100797.59;5027462;28;20045;-46
2022/12/15 09:06:58;;;;;;;37.55;18.58;;;;;;;-6.13;100.00;100801.03;5029011;28;20140;-46
2022/12/15 09:09:26;;;;;;;34.00;16.55;;;;;;;-6.06;100.00;100815.56;5029251;28;20107;-46
2022/12/15 09:11:54;;;;;;;28.25;17.17;;;;;;;-6.02;100.00;100816.44;5028059;28;20124;-46
2022/12/15 09:14:24;;;;;;;34.65;19.27;;;;;;;-5.96;100.00;100816.41;5029969;28;20049;-53
2022/12/15 09:16:56;;;;;;;32.33;17.88;;;;;;;-5.86;100.00;100824.97;5029528;28;20556;-52
2022/12/15 09:19:25;;;;;;;32.88;19.27;;;;;;;-5.82;100.00;100819.00;5030011;28;20401;-55
2022/12/15 09:21:53;;;;;;;32.55;19.55;;;;;;;-5.73;100.00;100824.13;5030156;28;20060;-54
2022/12/15 09:24:23;;;;;;;34.92;20.75;;;;;;;-5.68;100.00;100825.00;5030054;28;20041;-51
2022/12/15 09:27:02;;;;;;;33.30;18.33;;;;;;;-5.61;100.00;100815.63;5029875;28;20060;-50
2022/12/15 09:29:32;;;;;;;33.10;19.65;;;;;;;-5.50;100.00;100824.16;5029918;28;20061;-50
2022/12/15 09:32:00;;;;;;;32.20;18.65;;;;;;;-5.40;100.00;100822.47;5028601;28;20126;-50
2022/12/15 09:34:29;;;;;;;36.28;20.35;;;;;;;-5.38;100.00;100823.31;5029455;28;20091;-49
2022/12/15 09:36:58;;;;;;;34.15;19.85;;;;;;;-5.26;100.00;100827.63;5028886;28;20061;-54
2022/12/15 09:39:26;;;;;;;31.77;18.85;;;;;;;-5.26;100.00;100825.03;5029633;28;20073;-54
2022/12/15 09:41:59;;;;;;;34.67;20.42;;;;;;;-5.24;100.00;100830.16;5032345;28;20041;-53
2022/12/15 09:44:30;;;;;;;36.63;20.48;;;;;;;-5.19;100.00;100831.03;5033445;28;20045;-52
2022/12/15 09:47:10;;;;;;;36.95;20.05;;;;;;;-5.14;100.00;100849.81;5032314;28;20053;-52
2022/12/15 09:49:48;;;;;;;39.20;21.55;;;;;;;-5.11;100.00;100845.56;5033233;28;20439;-50
2022/12/15 09:52:19;;;;;;;37.08;21.30;;;;;;;-5.07;100.00;100845.53;5033418;28;20510;-52
2022/12/15 09:54:47;;;;;;;32.63;20.02;;;;;;;-5.05;100.00;100841.28;5032846;28;20053;-50
2022/12/15 09:57:23;;;;;;;40.72;19.85;;;;;;;-5.02;100.00;100852.38;5032744;28;20051;-49
2022/12/15 10:00:13;;;;;;;38.75;20.48;;;;;;;-4.92;100.00;100848.94;5032384;28;20057;-48
2022/12/15 10:03:09;;;;;;;35.05;19.40;;;;;;;-4.87;100.00;100848.09;5030627;28;20041;-48
2022/12/15 10:06:02;;;;;;;42.28;22.35;;;;;;;-4.81;100.00;100855.78;5032530;28;20484;-51
2022/12/15 10:08:48;;;;;;;39.20;22.00;;;;;;;-4.75;100.00;100853.19;5032687;28;20531;-50
2022/12/15 10:11:35;;;;;;;39.40;22.88;;;;;;;-4.69;100.00;100849.75;5032903;28;20059;-51
2022/12/15 10:14:11;;;;;;;36.13;21.60;;;;;;;-4.65;100.00;100844.63;5032676;28;20041;-50
2022/12/15 10:16:51;;;;;;;49.95;22.73;;;;;;;-4.59;100.00;100834.34;5031773;28;20068;-51
2022/12/15 10:19:29;;;;;;;40.45;23.10;;;;;;;-4.54;100.00;100836.03;5033058;28;20104;-50
2022/12/15 10:21:58;;;;;;;38.92;20.85;;;;;;;-4.51;100.00;100830.88;5032584;28;20045;-53
2022/12/15 10:24:29;;;;;;;40.67;23.60;;;;;;;-4.45;100.00;100833.44;5033052;28;20449;-51
2022/12/15 10:27:34;;;;;;;37.55;22.30;;;;;;;-4.36;100.00;100837.69;5032900;28;20057;-53
2022/12/15 10:30:05;;;;;;;37.25;22.42;;;;;;;-4.33;100.00;100840.25;5033455;28;20056;-51
2022/12/15 10:32:49;;;;;;;38.10;22.80;;;;;;;-4.22;100.00;100840.22;5031302;28;20056;-53
2022/12/15 10:35:22;;;;;;;37.05;23.67;;;;;;;-4.19;100.00;100838.47;5030925;28;20583;-50
2022/12/15 10:37:50;;;;;;;41.08;22.48;;;;;;;-4.15;100.00;100835.03;5033005;28;20052;-50
2022/12/15 10:40:39;;;;;;;36.28;22.30;;;;;;;-4.07;100.00;100832.44;5032742;28;20569;-49
2022/12/15 10:43:14;;;;;;;37.13;22.90;;;;;;;-4.05;100.00;100845.28;5032442;28;20049;-53
2022/12/15 10:45:42;;;;;;;37.05;22.38;;;;;;;-3.98;100.00;100842.69;5031120;28;20057;-52
2022/12/15 10:48:19;;;;;;;39.15;23.35;;;;;;;-3.99;100.00;100846.09;5031155;28;20115;-53
2022/12/15 10:50:49;;;;;;;38.85;23.52;;;;;;;-3.95;100.00;100839.25;5031977;28;20050;-52
2022/12/15 10:53:38;;;;;;;42.55;25.13;;;;;;;-3.89;100.00;100835.78;5031015;28;20382;-52
2022/12/15 10:56:08;;;;;;;43.42;23.05;;;;;;;-3.88;100.00;100837.50;5031736;28;20392;-51
2022/12/15 10:58:47;;;;;;;39.33;24.67;;;;;;;-3.84;100.00;100839.19;5031789;28;20080;-52
2022/12/15 11:01:20;;;;;;;39.38;24.40;;;;;;;-3.80;100.00;100840.88;5029812;28;20057;-53
2022/12/15 11:03:52;;;;;;;40.88;22.75;;;;;;;-3.68;100.00;100833.09;5031961;28;20382;-51
2022/12/15 11:06:26;;;;;;;37.78;23.90;;;;;;;-3.53;100.00;100833.81;5031985;28;20095;-50
2022/12/15 11:08:57;;;;;;;40.13;24.52;;;;;;;-3.55;100.00;100841.56;5032233;28;20404;-53
2022/12/15 11:14:22;;;;;;;42.53;24.30;;;;;;;-3.51;100.00;100832.13;5030726;28;20083;-54
2022/12/15 11:16:55;;;;;;;36.17;23.17;;;;;;;-3.33;100.00;100838.81;5030257;28;20050;-54
2022/12/15 11:19:35;;;;;;;38.33;24.17;;;;;;;-3.30;100.00;100831.97;5031955;28;20053;-54
2022/12/15 11:22:12;;;;;;;40.42;24.13;;;;;;;-3.23;100.00;100838.75;5029867;28;20049;-52
2022/12/15 11:24:47;;;;;;;38.63;23.52;;;;;;;-3.23;100.00;100832.75;5032059;28;20497;-50
2022/12/15 11:27:24;;;;;;;39.33;23.70;;;;;;;-3.21;100.00;100837.88;5031353;28;20049;-53
2022/12/15 11:30:01;;;;;;;38.80;23.42;;;;;;;-3.20;100.00;100837.88;5031217;28;20073;-53
2022/12/15 11:32:34;;;;;;;37.85;23.55;;;;;;;-3.16;100.00;100830.97;5030004;28;20136;-53
2022/12/15 11:35:02;;;;;;;38.90;24.42;;;;;;;-3.13;100.00;100828.38;5031349;28;20130;-53
2022/12/15 11:37:40;;;;;;;39.00;23.85;;;;;;;-2.98;100.00;100833.38;5031488;28;20049;-52
2022/12/15 11:40:26;;;;;;;38.30;24.08;;;;;;;-2.90;100.00;100839.31;5031875;28;20099;-54
2022/12/15 11:43:05;;;;;;;39.78;23.73;;;;;;;-2.86;100.00;100844.41;5030887;28;20107;-54
2022/12/15 11:45:41;;;;;;;39.15;24.17;;;;;;;-2.90;100.00;100836.72;5030992;28;20072;-50
2022/12/15 11:48:16;;;;;;;38.67;24.50;;;;;;;-2.79;100.00;100828.06;5029331;28;20057;-47
2022/12/15 11:50:53;;;;;;;46.17;26.83;;;;;;;-2.80;100.00;100828.94;5030651;28;20045;-52
2022/12/15 11:53:54;;;;;;;41.78;24.35;;;;;;;-2.81;100.00;100835.81;5031756;28;20053;-54
2022/12/15 11:56:31;;;;;;;40.42;24.52;;;;;;;-2.82;100.00;100840.94;5031335;28;20504;-54
2022/12/15 11:59:40;;;;;;;38.80;25.52;;;;;;;-2.75;100.00;100832.31;5030780;28;20133;-53
2022/12/15 12:02:31;;;;;;;44.42;25.33;;;;;;;-2.69;100.00;100831.41;5029773;28;20126;-54
2022/12/15 12:05:19;;;;;;;40.70;24.48;;;;;;;-2.65;100.00;100835.66;5030076;28;20552;-54
2022/12/15 12:07:50;;;;;;;39.85;25.73;;;;;;;-2.60;100.00;100827.00;5030746;28;20053;-54
2022/12/15 12:10:31;;;;;;;41.25;26.23;;;;;;;-2.45;100.00;100836.28;5031230;28;20103;-52
2022/12/15 12:13:12;;;;;;;43.13;26.08;;;;;;;-2.51;100.00;100832.91;5030307;28;20532;-54
2022/12/15 12:15:51;;;;;;;41.42;25.35;;;;;;;-2.52;100.00;100826.91;5031230;28;20068;-55
2022/12/15 12:18:23;;;;;;;38.80;24.35;;;;;;;-2.44;100.00;100827.69;5030342;28;20060;-54
2022/12/15 12:20:53;;;;;;;;;;;;;;;-2.39;100.00;100823.34;5031412;28;20041;-54
2022/12/15 12:23:27;;;;;;;40.47;24.85;;;;;;;-2.37;100.00;100820.75;5031157;28;20359;-54
2022/12/15 12:26:04;;;;;;;40.83;25.25;;;;;;;-2.35;100.00;100818.97;5031149;28;20492;-53
2022/12/15 12:28:39;;;;;;;41.60;25.92;;;;;;;-2.34;100.00;100820.69;5030476;28;20053;-55
2022/12/15 12:31:19;;;;;;;44.83;27.73;;;;;;;-2.22;100.00;100817.97;5029565;28;20065;-54
2022/12/15 12:33:53;;;;;;;40.75;25.50;;;;;;;-2.23;100.00;100813.66;5029708;28;20764;-55
2022/12/15 12:36:21;;;;;;;38.97;26.42;;;;;;;-2.11;100.00;100806.69;5030260;28;20045;-54
2022/12/15 12:38:52;;;;;;;42.08;26.17;;;;;;;-2.14;100.00;100799.84;5030406;28;20095;-54
2022/12/15 12:41:31;;;;;;;38.83;24.92;;;;;;;-2.18;100.00;100799.88;5030614;28;20041;-53
2022/12/15 12:44:04;;;;;;;40.03;26.27;;;;;;;-2.18;100.00;100799.88;5030496;28;20061;-55
2022/12/15 12:46:36;;;;;;;42.70;26.95;;;;;;;-2.13;100.00;100808.41;5028870;28;20491;-52
2022/12/15 12:49:12;;;;;;;42.78;26.50;;;;;;;-2.10;100.00;100800.63;5030312;28;20045;-55
2022/12/15 12:51:42;;;;;;;41.67;26.90;;;;;;;-2.04;100.00;100803.13;5029615;28;20103;-54
2022/12/15 12:54:40;;;;;;;40.33;26.75;;;;;;;-1.84;100.00;100804.56;5027872;28;20111;-54
2022/12/15 13:00:13;;;;;;;43.70;27.23;;;;;;;-1.81;100.00;100800.22;5087314;27;20615;-51
2022/12/15 13:03:17;;;;;;;39.97;26.10;;;;;;;-1.71;100.00;100790.63;5084268;28;20541;-52
2022/12/15 13:05:51;;;;;;;42.70;26.33;;;;;;;-1.72;100.00;100794.94;5088704;28;20051;-50
2022/12/15 13:08:49;;;;;;;40.72;26.55;;;;;;;-1.69;100.00;100791.47;5087342;28;20040;-50
2022/12/15 13:11:57;;;;;;;42.70;27.42;;;;;;;-1.61;100.00;100784.47;5086795;28;20094;-48
2022/12/15 13:14:41;;;;;;;45.10;27.13;;;;;;;-1.54;100.00;100780.91;5086896;28;20072;-49
2022/12/15 13:17:16;;;;;;;40.47;26.27;;;;;;;-1.48;100.00;100786.84;5085531;28;20040;-49
2022/12/15 13:20:19;;;;;;;41.03;26.50;;;;;;;-1.44;100.00;100783.34;5086618;28;20122;-50
2022/12/15 13:22:48;;;;;;;42.97;26.70;;;;;;;-1.32;100.00;100782.25;5088041;28;20044;-50
2022/12/15 13:25:40;;;;;;;41.67;26.88;;;;;;;-1.26;100.00;100779.59;5086936;28;20048;-51
2022/12/15 13:28:38;;;;;;;44.10;27.42;;;;;;;-1.18;100.00;100779.47;5083771;28;20522;-48
2022/12/15 13:31:29;;;;;;;43.53;25.98;;;;;;;-1.21;100.00;100770.91;5085110;28;20048;-47
2022/12/15 13:34:24;;;;;;;41.70;26.38;;;;;;;-1.20;100.00;100770.03;5077379;28;20056;-47
2022/12/15 13:36:57;;;;;;;44.42;26.15;;;;;;;-1.17;100.00;100776.00;5085109;28;20060;-47
2022/12/15 13:39:34;;;;;;;40.22;26.40;;;;;;;-1.11;100.00;100763.00;5086305;28;20142;-50
2022/12/15 13:42:28;;;;;;;38.75;24.38;;;;;;;-1.05;100.00;100749.97;5085500;28;20129;-49
2022/12/15 13:45:38;;;;;;;40.85;25.10;;;;;;;-1.08;100.00;100757.78;5086155;28;20052;-49
2022/12/15 13:48:35;;;;;;;41.65;24.90;;;;;;;-1.12;100.00;100749.22;5084453;28;20135;-47
2022/12/15 13:51:21;;;;;;;38.63;24.52;;;;;;;-1.12;100.00;100753.53;5085888;28;20851;-46
2022/12/15 13:53:56;;;;;;;40.78;25.55;;;;;;;-1.13;100.00;100749.25;5085815;28;20052;-46